createdAt,value
2023-12-30T00:00:20.404Z,53.36
2023-12-30T00:01:20.401Z,52.35
2023-12-30T00:02:20.273Z,54.29
2023-12-30T00:03:20.317Z,53.36
2023-12-30T00:04:20.335Z,53.17
2023-12-30T00:05:20.281Z,53.76
2023-12-30T00:06:20.286Z,53.95
2023-12-30T00:07:20.304Z,53.83
2023-12-30T00:08:20.294Z,52.07
2023-12-30T00:09:20.288Z,50.71
2023-12-30T00:10:20.316Z,54.28
2023-12-30T00:11:20.337Z,52.34
2023-12-30T00:12:20.299Z,54.61
2023-12-30T00:13:20.331Z,52.78
2023-12-30T00:14:20.322Z,49.60
2023-12-30T00:15:20.326Z,54.66
2023-12-30T00:16:20.347Z,52.39
2023-12-30T00:17:20.328Z,52.32
2023-12-30T00:18:20.396Z,55.16
2023-12-30T00:19:21.207Z,54.18
2023-12-30T00:20:20.324Z,54.38
2023-12-30T00:21:20.321Z,54.68
2023-12-30T00:22:20.334Z,56.08
2023-12-30T00:23:20.323Z,52.37
2023-12-30T00:24:20.328Z,50.00
2023-12-30T00:25:20.371Z,54.75
2023-12-30T00:26:20.310Z,55.68
2023-12-30T00:27:20.318Z,56.71
2023-12-30T00:28:20.367Z,53.06
2023-12-30T00:29:20.324Z,55.31
2023-12-30T00:30:20.355Z,55.35
2023-12-30T00:31:20.337Z,54.82
2023-12-30T00:32:20.324Z,56.15
2023-12-30T00:33:20.406Z,57.17
2023-12-30T00:34:20.426Z,53.98
2023-12-30T00:35:20.339Z,56.25
2023-12-30T00:36:20.331Z,52.70
2023-12-30T00:37:20.626Z,54.20
2023-12-30T00:38:24.308Z,52.98
2023-12-30T00:39:20.388Z,53.02
2023-12-30T00:40:26.291Z,53.04
2023-12-30T00:41:21.554Z,53.02
2023-12-30T00:42:20.336Z,53.28
2023-12-30T00:43:20.351Z,53.41
2023-12-30T00:44:20.325Z,53.21
2023-12-30T00:45:20.317Z,54.14
2023-12-30T00:46:20.358Z,55.25
2023-12-30T00:47:20.328Z,54.83
2023-12-30T00:48:20.369Z,55.04
2023-12-30T00:49:20.478Z,52.63
2023-12-30T00:50:20.320Z,54.09
2023-12-30T00:51:20.325Z,53.27
2023-12-30T00:52:21.846Z,54.83
2023-12-30T00:53:20.340Z,53.24
2023-12-30T00:54:20.328Z,54.06
2023-12-30T00:55:20.341Z,53.95
2023-12-30T00:56:20.436Z,53.67
2023-12-30T00:57:20.343Z,51.12
2023-12-30T00:58:20.362Z,54.50
2023-12-30T00:59:20.337Z,54.40
2023-12-30T01:00:20.338Z,53.96
2023-12-30T01:01:20.527Z,55.19
2023-12-30T01:02:20.331Z,52.70
2023-12-30T01:03:20.363Z,54.29
2023-12-30T01:04:20.402Z,53.25
2023-12-30T01:05:20.371Z,56.34
2023-12-30T01:06:20.329Z,53.33
2023-12-30T01:07:20.339Z,54.65
2023-12-30T01:08:20.352Z,52.24
2023-12-30T01:09:20.347Z,53.43
2023-12-30T01:10:20.396Z,51.83
2023-12-30T01:11:20.377Z,56.46
2023-12-30T01:12:20.352Z,54.04
2023-12-30T01:13:20.404Z,51.91
2023-12-30T01:14:20.358Z,54.18
2023-12-30T01:15:20.383Z,53.17
2023-12-30T01:16:20.431Z,53.78
2023-12-30T01:17:20.382Z,51.74
2023-12-30T01:18:20.454Z,54.01
2023-12-30T01:19:20.398Z,53.66
2023-12-30T01:20:20.353Z,52.39
2023-12-30T01:21:20.357Z,51.24
2023-12-30T01:22:20.400Z,54.38
2023-12-30T01:23:20.353Z,50.31
2023-12-30T01:24:20.428Z,52.83
2023-12-30T01:25:20.377Z,52.78
2023-12-30T01:26:20.362Z,53.60
2023-12-30T01:27:20.362Z,54.54
2023-12-30T01:28:20.351Z,54.36
2023-12-30T01:29:20.364Z,51.42
2023-12-30T01:30:20.419Z,53.55
2023-12-30T01:31:20.463Z,55.24
2023-12-30T01:32:20.371Z,51.94
2023-12-30T01:33:20.412Z,50.73
2023-12-30T01:34:20.436Z,52.83
2023-12-30T01:35:20.385Z,54.65
2023-12-30T01:36:20.370Z,53.43
2023-12-30T01:37:20.394Z,51.60
2023-12-30T01:38:20.376Z,53.07
2023-12-30T01:39:20.467Z,54.72
2023-12-30T01:40:20.400Z,55.13
2023-12-30T01:41:20.397Z,51.19
2023-12-30T01:42:20.396Z,52.73
2023-12-30T01:43:20.399Z,55.15
2023-12-30T01:44:20.404Z,52.49
2023-12-30T01:45:21.075Z,53.99
2023-12-30T01:46:20.429Z,53.56
2023-12-30T01:47:20.414Z,53.52
2023-12-30T01:48:20.450Z,51.99
2023-12-30T01:49:20.425Z,54.49
2023-12-30T01:50:20.403Z,52.62
2023-12-30T01:51:25.070Z,54.62
2023-12-30T01:52:21.446Z,51.98
2023-12-30T01:53:20.433Z,54.70
2023-12-30T01:54:20.413Z,54.03
2023-12-30T01:55:20.432Z,54.17
2023-12-30T01:56:20.426Z,53.42
2023-12-30T01:57:20.436Z,55.98
2023-12-30T01:58:20.453Z,53.92
2023-12-30T01:59:20.441Z,53.18
2023-12-30T02:00:20.490Z,53.75
2023-12-30T02:01:20.487Z,52.63
2023-12-30T02:02:20.466Z,52.49
2023-12-30T02:03:20.465Z,51.37
2023-12-30T02:04:20.504Z,53.72
2023-12-30T02:05:20.484Z,54.27
2023-12-30T02:06:20.466Z,51.00
2023-12-30T02:07:20.543Z,54.36
2023-12-30T02:08:20.473Z,54.14
2023-12-30T02:09:20.474Z,56.32
2023-12-30T02:10:20.523Z,56.05
2023-12-30T02:11:20.475Z,52.67
2023-12-30T02:12:20.469Z,54.88
2023-12-30T02:13:20.478Z,54.89
2023-12-30T02:14:20.472Z,53.29
2023-12-30T02:15:20.456Z,55.01
2023-12-30T02:16:20.511Z,54.17
2023-12-30T02:17:20.457Z,54.11
2023-12-30T02:18:20.498Z,54.83
2023-12-30T02:19:20.508Z,52.83
2023-12-30T02:20:20.464Z,54.27
2023-12-30T02:21:20.459Z,55.49
2023-12-30T02:22:20.453Z,54.42
2023-12-30T02:23:20.474Z,54.54
2023-12-30T02:24:20.479Z,52.59
2023-12-30T02:25:20.500Z,53.73
2023-12-30T02:26:20.475Z,54.06
2023-12-30T02:27:20.473Z,53.99
2023-12-30T02:28:20.511Z,53.55
2023-12-30T02:29:20.494Z,55.62
2023-12-30T02:30:20.502Z,53.72
2023-12-30T02:31:20.512Z,52.67
2023-12-30T02:32:20.473Z,51.45
2023-12-30T02:33:20.521Z,53.80
2023-12-30T02:34:20.673Z,54.71
2023-12-30T02:35:20.495Z,53.25
2023-12-30T02:36:20.510Z,54.33
2023-12-30T02:37:20.531Z,55.94
2023-12-30T02:38:20.495Z,53.23
2023-12-30T02:39:20.490Z,53.23
2023-12-30T02:40:20.523Z,52.74
2023-12-30T02:41:20.508Z,53.90
2023-12-30T02:42:20.493Z,53.54
2023-12-30T02:43:20.525Z,53.83
2023-12-30T02:44:20.537Z,53.39
2023-12-30T02:45:20.500Z,54.61
2023-12-30T02:46:20.527Z,54.43
2023-12-30T02:47:20.591Z,53.91
2023-12-30T02:48:20.657Z,53.68
2023-12-30T02:49:20.682Z,54.23
2023-12-30T02:50:20.572Z,52.82
2023-12-30T02:51:20.574Z,53.60
2023-12-30T02:52:20.647Z,50.31
2023-12-30T02:53:20.609Z,53.13
2023-12-30T02:54:20.626Z,55.50
2023-12-30T02:55:20.664Z,54.02
2023-12-30T02:56:20.649Z,55.00
2023-12-30T02:57:20.658Z,55.79
2023-12-30T02:58:20.754Z,53.45
2023-12-30T02:59:20.696Z,55.14
2023-12-30T03:00:20.720Z,51.66
2023-12-30T03:01:20.796Z,52.68
2023-12-30T03:02:20.720Z,55.08
2023-12-30T03:03:20.744Z,52.88
2023-12-30T03:04:20.911Z,53.18
2023-12-30T03:05:20.940Z,55.70
2023-12-30T03:06:20.839Z,54.95
2023-12-30T03:07:20.827Z,55.23
2023-12-30T03:08:20.806Z,54.79
2023-12-30T03:09:20.840Z,56.15
2023-12-30T03:10:20.914Z,55.08
2023-12-30T03:11:20.871Z,53.19
2023-12-30T03:12:20.871Z,54.75
2023-12-30T03:13:20.939Z,53.00
2023-12-30T03:14:20.912Z,54.31
2023-12-30T03:15:20.926Z,54.70
2023-12-30T03:16:21.010Z,53.10
2023-12-30T03:17:20.974Z,54.57
2023-12-30T03:18:21.019Z,53.05
2023-12-30T03:19:21.002Z,53.14
2023-12-30T03:20:20.988Z,55.46
2023-12-30T03:21:21.029Z,55.01
2023-12-30T03:22:21.060Z,54.53
2023-12-30T03:23:21.033Z,54.48
2023-12-30T03:24:21.057Z,53.86
2023-12-30T03:25:21.091Z,54.45
2023-12-30T03:26:21.172Z,53.53
2023-12-30T03:27:21.121Z,54.58
2023-12-30T03:28:21.183Z,54.39
2023-12-30T03:29:21.131Z,55.71
2023-12-30T03:30:21.210Z,54.97
2023-12-30T03:31:21.182Z,54.99
2023-12-30T03:32:21.182Z,55.85
2023-12-30T03:33:21.212Z,53.43
2023-12-30T03:34:21.329Z,55.91
2023-12-30T03:35:21.215Z,55.15
2023-12-30T03:36:21.231Z,56.53
2023-12-30T03:37:21.263Z,55.80
2023-12-30T03:38:21.260Z,56.06
2023-12-30T03:39:21.263Z,55.25
2023-12-30T03:40:21.311Z,54.44
2023-12-30T03:41:21.282Z,54.34
2023-12-30T03:42:21.289Z,54.86
2023-12-30T03:43:21.404Z,55.21
2023-12-30T03:44:21.328Z,55.69
2023-12-30T03:45:21.348Z,54.19
2023-12-30T03:46:21.448Z,54.58
2023-12-30T03:47:21.370Z,53.51
2023-12-30T03:48:21.501Z,55.45
2023-12-30T03:49:21.487Z,55.87
2023-12-30T03:50:21.414Z,55.60
2023-12-30T03:51:21.427Z,55.88
2023-12-30T03:52:21.449Z,54.21
2023-12-30T03:53:21.457Z,55.81
2023-12-30T03:54:21.479Z,56.92
2023-12-30T03:55:21.510Z,55.08
2023-12-30T03:56:21.500Z,53.94
2023-12-30T03:57:21.530Z,56.67
2023-12-30T03:58:21.525Z,54.56
2023-12-30T03:59:21.544Z,53.77
2023-12-30T04:00:21.559Z,54.25
2023-12-30T04:01:21.643Z,55.85
2023-12-30T04:02:21.597Z,53.87
2023-12-30T04:03:21.637Z,54.50
2023-12-30T04:04:21.661Z,53.69
2023-12-30T04:05:21.748Z,54.25
2023-12-30T04:06:21.656Z,53.05
2023-12-30T04:07:21.699Z,54.21
2023-12-30T04:08:21.672Z,53.24
2023-12-30T04:09:21.675Z,53.02
2023-12-30T04:10:21.729Z,54.35
2023-12-30T04:11:21.721Z,53.63
2023-12-30T04:12:21.751Z,54.08
2023-12-30T04:13:21.802Z,54.79
2023-12-30T04:14:21.764Z,55.02
2023-12-30T04:15:21.782Z,55.96
2023-12-30T04:16:21.835Z,56.82
2023-12-30T04:17:21.862Z,53.29
2023-12-30T04:18:21.918Z,56.32
2023-12-30T04:19:21.967Z,53.07
2023-12-30T04:20:21.891Z,55.25
2023-12-30T04:21:21.875Z,54.56
2023-12-30T04:22:21.950Z,51.71
2023-12-30T04:23:21.930Z,55.08
2023-12-30T04:24:21.973Z,54.21
2023-12-30T04:25:22.004Z,54.07
2023-12-30T04:26:21.978Z,54.03
2023-12-30T04:27:22.060Z,56.12
2023-12-30T04:28:22.152Z,54.89
2023-12-30T04:29:22.077Z,53.33
2023-12-30T04:30:22.128Z,56.97
2023-12-30T04:31:22.104Z,53.85
2023-12-30T04:32:22.158Z,55.78
2023-12-30T04:33:22.162Z,51.60
2023-12-30T04:34:22.220Z,55.07
2023-12-30T04:35:29.496Z,50.00
2023-12-30T04:36:29.499Z,50.00
2023-12-30T04:37:29.558Z,50.00
2023-12-30T04:38:29.515Z,50.00
2023-12-30T04:39:29.517Z,50.00
2023-12-30T04:40:29.579Z,52.18
2023-12-30T04:41:29.519Z,51.67
2023-12-30T04:42:29.525Z,51.22
2023-12-30T04:43:29.576Z,51.90
2023-12-30T04:44:29.542Z,52.57
2023-12-30T04:45:29.537Z,52.29
2023-12-30T04:46:29.573Z,51.43
2023-12-30T04:47:29.574Z,51.70
2023-12-30T04:48:29.551Z,53.12
2023-12-30T04:49:29.610Z,51.32
2023-12-30T04:50:29.542Z,54.59
2023-12-30T04:51:29.551Z,52.99
2023-12-30T04:52:29.604Z,52.63
2023-12-30T04:53:29.550Z,53.55
2023-12-30T04:54:29.552Z,53.17
2023-12-30T04:55:29.607Z,50.94
2023-12-30T04:56:29.555Z,53.22
2023-12-30T04:57:29.549Z,51.55
2023-12-30T04:58:29.723Z,51.55
2023-12-30T04:59:29.571Z,50.32
2023-12-30T05:00:29.627Z,54.49
2023-12-30T05:01:29.624Z,51.98
2023-12-30T05:02:29.586Z,52.65
2023-12-30T05:03:29.735Z,51.71
2023-12-30T05:04:29.674Z,52.67
2023-12-30T05:05:29.625Z,51.30
2023-12-30T05:06:29.593Z,54.00
2023-12-30T05:07:29.684Z,51.73
2023-12-30T05:08:29.620Z,53.48
2023-12-30T05:09:29.644Z,52.74
2023-12-30T05:10:29.655Z,54.05
2023-12-30T05:11:29.626Z,52.72
2023-12-30T05:12:29.647Z,53.18
2023-12-30T05:13:29.660Z,52.20
2023-12-30T05:14:29.605Z,52.31
2023-12-30T05:15:30.602Z,52.94
2023-12-30T05:16:29.653Z,52.23
2023-12-30T05:17:29.653Z,51.75
2023-12-30T05:18:29.655Z,53.46
2023-12-30T05:19:29.666Z,53.74
2023-12-30T05:20:29.621Z,53.15
2023-12-30T05:21:29.618Z,52.87
2023-12-30T05:22:29.664Z,54.06
2023-12-30T05:23:29.633Z,51.97
2023-12-30T05:24:29.628Z,55.33
2023-12-30T05:25:29.678Z,53.53
2023-12-30T05:26:29.627Z,51.33
2023-12-30T05:27:29.637Z,54.45
2023-12-30T05:28:29.687Z,53.57
2023-12-30T05:29:29.655Z,52.96
2023-12-30T05:30:29.696Z,55.02
2023-12-30T05:31:29.710Z,52.80
2023-12-30T05:32:29.722Z,51.87
2023-12-30T05:33:29.733Z,50.00
2023-12-30T05:34:30.231Z,54.77
2023-12-30T05:35:29.654Z,55.15
2023-12-30T05:36:29.664Z,55.99
2023-12-30T05:37:29.704Z,54.33
2023-12-30T05:38:29.668Z,54.75
2023-12-30T05:39:29.657Z,54.16
2023-12-30T05:40:29.729Z,55.50
2023-12-30T05:41:29.664Z,54.51
2023-12-30T05:42:29.662Z,52.56
2023-12-30T05:43:29.710Z,54.80
2023-12-30T05:44:29.671Z,53.82
2023-12-30T05:45:29.689Z,53.03
2023-12-30T05:46:29.703Z,52.02
2023-12-30T05:47:29.716Z,51.62
2023-12-30T05:48:29.824Z,53.72
2023-12-30T05:49:29.814Z,55.26
2023-12-30T05:50:29.728Z,50.00
2023-12-30T05:51:29.689Z,53.25
2023-12-30T05:52:29.798Z,52.66
2023-12-30T05:53:29.709Z,53.14
2023-12-30T05:54:29.721Z,52.71
2023-12-30T05:55:29.819Z,55.32
2023-12-30T05:56:29.828Z,54.31
2023-12-30T05:57:31.091Z,53.39
2023-12-30T05:58:30.055Z,52.52
2023-12-30T05:59:29.873Z,53.85
2023-12-30T06:00:29.890Z,54.12
2023-12-30T06:01:30.033Z,53.47
2023-12-30T06:02:29.925Z,55.18
2023-12-30T06:03:30.001Z,54.03
2023-12-30T06:04:30.989Z,53.57
2023-12-30T06:05:30.003Z,53.56
2023-12-30T06:06:32.857Z,54.51
2023-12-30T06:07:30.000Z,54.88
2023-12-30T06:08:29.959Z,55.24
2023-12-30T06:09:29.960Z,55.29
2023-12-30T06:10:30.001Z,54.83
2023-12-30T06:11:29.972Z,55.55
2023-12-30T06:12:29.968Z,51.72
2023-12-30T06:13:29.968Z,53.98
2023-12-30T06:14:29.975Z,54.17
2023-12-30T06:15:29.979Z,55.12
2023-12-30T06:16:29.999Z,53.51
2023-12-30T06:17:30.006Z,56.73
2023-12-30T06:18:30.105Z,55.69
2023-12-30T06:19:30.050Z,55.39
2023-12-30T06:20:30.052Z,55.55
2023-12-30T06:21:30.127Z,53.98
2023-12-30T06:22:30.025Z,53.60
2023-12-30T06:23:30.033Z,53.95
2023-12-30T06:24:29.985Z,53.48
2023-12-30T06:25:30.026Z,55.85
2023-12-30T06:26:29.966Z,55.64
2023-12-30T06:27:30.006Z,51.93
2023-12-30T06:28:30.074Z,55.96
2023-12-30T06:29:32.224Z,53.70
2023-12-30T06:30:29.972Z,53.80
2023-12-30T06:31:30.053Z,51.94
2023-12-30T06:32:30.067Z,54.19
2023-12-30T06:33:29.986Z,55.62
2023-12-30T06:34:29.980Z,54.22
2023-12-30T06:35:29.939Z,54.35
2023-12-30T06:36:29.933Z,53.87
2023-12-30T06:37:29.997Z,56.22
2023-12-30T06:38:29.990Z,57.08
2023-12-30T06:39:29.920Z,56.85
2023-12-30T06:40:30.034Z,56.61
2023-12-30T06:41:29.937Z,55.12
2023-12-30T06:42:29.913Z,54.94
2023-12-30T06:43:29.948Z,55.82
2023-12-30T06:44:29.932Z,55.10
2023-12-30T06:45:29.932Z,55.86
2023-12-30T06:46:29.963Z,55.80
2023-12-30T06:47:29.950Z,55.39
2023-12-30T06:48:29.957Z,54.77
2023-12-30T06:49:30.029Z,53.99
2023-12-30T06:50:29.925Z,55.69
2023-12-30T06:51:29.938Z,54.21
2023-12-30T06:52:29.994Z,55.54
2023-12-30T06:53:29.922Z,54.44
2023-12-30T06:54:29.932Z,55.43
2023-12-30T06:55:35.359Z,53.43
2023-12-30T06:56:31.089Z,53.51
2023-12-30T06:57:29.943Z,53.71
2023-12-30T06:58:29.971Z,53.65
2023-12-30T06:59:29.928Z,53.76
2023-12-30T07:00:29.968Z,55.76
2023-12-30T07:01:29.983Z,53.47
2023-12-30T07:03:27.261Z,50.00
2023-12-30T07:04:27.265Z,50.00
2023-12-30T07:05:27.289Z,50.00
2023-12-30T07:06:27.222Z,50.00
2023-12-30T07:07:27.279Z,50.00
2023-12-30T07:08:27.235Z,51.93
2023-12-30T07:09:27.266Z,50.67
2023-12-30T07:10:27.278Z,50.00
2023-12-30T07:11:27.248Z,53.87
2023-12-30T07:12:27.259Z,54.57
2023-12-30T07:13:27.288Z,52.71
2023-12-30T07:14:27.316Z,53.81
2023-12-30T07:15:27.309Z,52.00
2023-12-30T07:16:27.312Z,51.96
2023-12-30T07:17:27.317Z,52.51
2023-12-30T07:18:27.409Z,52.11
2023-12-30T07:19:27.330Z,52.71
2023-12-30T07:20:27.269Z,51.08
2023-12-30T07:21:27.266Z,51.80
2023-12-30T07:22:27.287Z,52.39
2023-12-30T07:23:27.265Z,52.37
2023-12-30T07:24:27.274Z,55.09
2023-12-30T07:25:27.303Z,51.58
2023-12-30T07:26:27.254Z,52.32
2023-12-30T07:27:27.257Z,50.84
2023-12-30T07:28:27.326Z,53.04
2023-12-30T07:29:27.252Z,50.55
2023-12-30T07:30:27.313Z,51.54
2023-12-30T07:31:27.312Z,52.99
2023-12-30T07:32:27.271Z,51.98
2023-12-30T07:33:27.372Z,52.00
2023-12-30T07:34:27.328Z,54.02
2023-12-30T07:35:27.231Z,51.43
2023-12-30T07:36:27.252Z,53.04
2023-12-30T07:37:27.298Z,53.99
2023-12-30T07:38:27.253Z,53.16
2023-12-30T07:39:27.256Z,53.48
2023-12-30T07:40:27.277Z,53.58
2023-12-30T07:41:27.259Z,53.78
2023-12-30T07:42:27.245Z,53.26
2023-12-30T07:43:27.260Z,53.01
2023-12-30T07:44:27.261Z,52.23
2023-12-30T07:45:27.257Z,54.48
2023-12-30T07:46:27.394Z,53.73
2023-12-30T07:47:27.551Z,52.74
2023-12-30T07:48:27.278Z,53.06
2023-12-30T07:49:27.372Z,53.81
2023-12-30T07:50:27.278Z,52.62
2023-12-30T07:51:27.257Z,54.56
2023-12-30T07:52:27.318Z,53.44
2023-12-30T07:53:27.248Z,50.90
2023-12-30T07:54:27.252Z,54.78
2023-12-30T07:55:27.317Z,56.21
2023-12-30T07:56:27.236Z,53.66
2023-12-30T07:57:27.228Z,55.36
2023-12-30T07:58:27.287Z,54.61
2023-12-30T07:59:27.251Z,53.77
2023-12-30T08:00:27.273Z,51.61
2023-12-30T08:01:27.311Z,53.82
2023-12-30T08:02:27.233Z,51.90
2023-12-30T08:03:27.247Z,56.69
2023-12-30T08:04:27.276Z,55.03
2023-12-30T08:05:27.271Z,53.61
2023-12-30T08:06:27.250Z,54.52
2023-12-30T08:07:27.283Z,52.48
2023-12-30T08:08:27.229Z,55.42
2023-12-30T08:09:27.234Z,54.67
2023-12-30T08:10:27.296Z,51.93
2023-12-30T08:11:27.237Z,54.69
2023-12-30T08:12:27.258Z,53.79
2023-12-30T08:13:27.293Z,56.24
2023-12-30T08:14:27.283Z,52.19
2023-12-30T08:15:27.252Z,55.09
2023-12-30T08:16:27.294Z,54.71
2023-12-30T08:17:27.280Z,51.87
2023-12-30T08:18:27.365Z,53.05
2023-12-30T08:19:27.314Z,54.82
2023-12-30T08:20:27.293Z,55.37
2023-12-30T08:21:27.251Z,55.78
2023-12-30T08:22:27.319Z,55.04
2023-12-30T08:23:27.254Z,52.89
2023-12-30T08:24:27.252Z,52.92
2023-12-30T08:25:27.298Z,54.85
2023-12-30T08:26:27.348Z,55.03
2023-12-30T08:27:27.311Z,53.54
2023-12-30T08:28:27.348Z,54.15
2023-12-30T08:29:27.344Z,54.03
2023-12-30T08:30:27.400Z,54.10
2023-12-30T08:31:27.427Z,55.49
2023-12-30T08:32:27.441Z,52.64
2023-12-30T08:33:27.548Z,53.36
2023-12-30T08:34:27.509Z,54.13
2023-12-30T08:35:27.484Z,54.71
2023-12-30T08:36:27.500Z,53.22
2023-12-30T08:37:27.563Z,53.46
2023-12-30T08:38:27.553Z,53.13
2023-12-30T08:39:27.587Z,53.17
2023-12-30T08:40:27.604Z,53.57
2023-12-30T08:41:27.629Z,54.71
2023-12-30T08:42:27.648Z,54.15
2023-12-30T08:43:27.691Z,54.75
2023-12-30T08:44:27.690Z,53.14
2023-12-30T08:45:27.723Z,57.07
2023-12-30T08:46:27.875Z,56.21
2023-12-30T08:47:27.803Z,56.59
2023-12-30T08:48:27.953Z,54.41
2023-12-30T08:49:27.825Z,56.20
2023-12-30T08:50:27.834Z,56.60
2023-12-30T08:51:27.851Z,53.67
2023-12-30T08:52:27.882Z,55.37
2023-12-30T08:53:27.897Z,53.14
2023-12-30T08:54:27.932Z,55.81
2023-12-30T08:55:27.984Z,54.30
2023-12-30T08:56:27.983Z,55.47
2023-12-30T08:57:28.009Z,55.06
2023-12-30T08:58:28.069Z,54.80
2023-12-30T08:59:28.073Z,52.67
2023-12-30T09:00:28.115Z,52.32
2023-12-30T09:01:28.208Z,52.23
2023-12-30T09:02:28.140Z,55.45
2023-12-30T09:03:28.219Z,54.18
2023-12-30T09:04:28.261Z,56.00
2023-12-30T09:05:28.285Z,53.92
2023-12-30T09:06:28.258Z,52.67
2023-12-30T09:07:28.315Z,53.23
2023-12-30T09:08:28.377Z,54.42
2023-12-30T09:09:28.290Z,56.28
2023-12-30T09:10:28.355Z,55.59
2023-12-30T09:11:28.341Z,54.61
2023-12-30T09:12:28.356Z,56.87
2023-12-30T09:13:28.413Z,54.84
2023-12-30T09:14:28.395Z,56.32
2023-12-30T09:15:28.854Z,55.95
2023-12-30T09:16:28.528Z,52.64
2023-12-30T09:17:28.521Z,55.17
2023-12-30T09:18:28.518Z,55.13
2023-12-30T09:19:28.592Z,55.63
2023-12-30T09:20:28.611Z,54.60
2023-12-30T09:21:28.525Z,55.20
2023-12-30T09:22:28.579Z,54.94
2023-12-30T09:23:28.572Z,55.04
2023-12-30T09:24:28.568Z,56.45
2023-12-30T09:25:28.635Z,53.19
2023-12-30T09:26:28.607Z,55.26
2023-12-30T09:27:28.611Z,53.47
2023-12-30T09:28:28.680Z,56.72
2023-12-30T09:29:28.633Z,54.79
2023-12-30T09:30:28.800Z,55.45
2023-12-30T09:31:28.830Z,55.47
2023-12-30T09:32:28.697Z,52.59
2023-12-30T09:33:28.788Z,54.61
2023-12-30T09:34:34.493Z,54.67
2023-12-30T09:35:29.763Z,54.67
2023-12-30T09:36:28.690Z,54.97
2023-12-30T09:37:28.721Z,53.73
2023-12-30T09:38:28.697Z,54.20
2023-12-30T09:39:28.706Z,55.62
2023-12-30T09:40:28.734Z,53.80
2023-12-30T09:41:28.704Z,54.83
2023-12-30T09:42:28.725Z,55.63
2023-12-30T09:43:28.783Z,56.46
2023-12-30T09:44:28.707Z,55.15
2023-12-30T09:45:28.713Z,54.96
2023-12-30T09:46:28.730Z,56.06
2023-12-30T09:47:28.845Z,59.26
2023-12-30T09:48:29.203Z,54.68
2023-12-30T09:49:28.773Z,56.05
2023-12-30T09:50:28.755Z,55.69
2023-12-30T09:51:28.733Z,56.35
2023-12-30T09:52:28.771Z,56.28
2023-12-30T09:53:28.731Z,56.28
2023-12-30T09:54:38.569Z,55.38
2023-12-30T09:55:29.776Z,55.41
2023-12-30T09:56:28.736Z,55.43
2023-12-30T09:57:28.749Z,55.54
2023-12-30T09:58:28.785Z,55.46
2023-12-30T09:59:28.804Z,54.58
2023-12-30T10:00:28.752Z,54.05
2023-12-30T10:01:28.800Z,55.38
2023-12-30T10:02:28.761Z,55.58
2023-12-30T10:03:28.771Z,56.10
2023-12-30T10:04:28.804Z,51.94
2023-12-30T10:05:28.808Z,54.04
2023-12-30T10:06:28.824Z,55.37
2023-12-30T10:07:28.793Z,56.71
2023-12-30T10:08:28.755Z,54.14
2023-12-30T10:09:28.754Z,56.73
2023-12-30T10:10:28.789Z,54.79
2023-12-30T10:11:28.844Z,55.67
2023-12-30T10:12:28.744Z,57.03
2023-12-30T10:13:29.034Z,57.90
2023-12-30T10:14:28.768Z,54.96
2023-12-30T10:15:28.750Z,55.88
2023-12-30T10:16:28.801Z,55.42
2023-12-30T10:17:28.783Z,55.19
2023-12-30T10:18:28.782Z,53.83
2023-12-30T10:19:28.878Z,57.46
2023-12-30T10:20:28.740Z,55.57
2023-12-30T10:21:28.741Z,56.07
2023-12-30T10:22:28.756Z,51.42
2023-12-30T10:23:28.758Z,57.16
2023-12-30T10:24:28.849Z,52.30
2023-12-30T10:25:28.819Z,52.28
2023-12-30T10:26:28.759Z,55.31
2023-12-30T10:27:28.786Z,57.50
2023-12-30T10:28:28.896Z,53.15
2023-12-30T10:29:28.843Z,55.04
2023-12-30T10:30:28.871Z,54.88
2023-12-30T10:31:28.841Z,55.84
2023-12-30T10:32:28.855Z,53.50
2023-12-30T10:33:28.928Z,56.03
2023-12-30T10:34:28.886Z,57.66
2023-12-30T10:35:28.906Z,54.57
2023-12-30T10:36:28.972Z,54.37
2023-12-30T10:37:29.037Z,56.69
2023-12-30T10:38:29.010Z,55.68
2023-12-30T10:39:28.983Z,55.10
2023-12-30T10:40:29.020Z,53.68
2023-12-30T10:41:29.029Z,55.92
2023-12-30T10:42:29.027Z,56.43
2023-12-30T10:43:29.082Z,54.28
2023-12-30T10:44:29.080Z,57.64
2023-12-30T10:45:29.111Z,57.65
2023-12-30T10:46:29.151Z,58.05
2023-12-30T10:47:29.155Z,57.57
2023-12-30T10:48:29.149Z,59.64
2023-12-30T10:49:29.260Z,56.03
2023-12-30T10:50:29.267Z,56.56
2023-12-30T10:51:29.217Z,55.70
2023-12-30T10:52:29.263Z,56.10
2023-12-30T10:53:29.223Z,56.85
2023-12-30T10:54:29.250Z,55.74
2023-12-30T10:55:29.316Z,57.85
2023-12-30T10:56:29.383Z,59.33
2023-12-30T10:57:29.395Z,57.16
2023-12-30T10:58:29.480Z,57.32
2023-12-30T10:59:29.529Z,56.57
2023-12-30T11:00:29.516Z,57.85
2023-12-30T11:01:29.759Z,57.37
2023-12-30T11:02:29.665Z,56.75
2023-12-30T11:03:29.721Z,56.68
2023-12-30T11:04:29.825Z,55.08
2023-12-30T11:05:29.885Z,57.70
2023-12-30T11:06:29.958Z,58.67
2023-12-30T11:07:30.037Z,58.74
2023-12-30T11:08:30.004Z,59.22
2023-12-30T11:09:30.063Z,58.62
2023-12-30T11:10:30.115Z,58.67
2023-12-30T11:11:30.161Z,56.75
2023-12-30T11:12:30.223Z,57.60
2023-12-30T11:13:30.348Z,57.78
2023-12-30T11:14:30.332Z,60.04
2023-12-30T11:15:30.485Z,56.28
2023-12-30T11:16:30.494Z,59.59
2023-12-30T11:17:30.606Z,57.24
2023-12-30T11:18:30.689Z,55.28
2023-12-30T11:19:30.925Z,57.10
2023-12-30T11:20:30.766Z,57.17
2023-12-30T11:21:30.719Z,58.66
2023-12-30T11:22:30.796Z,57.03
2023-12-30T11:23:30.800Z,56.98
2023-12-30T11:24:30.899Z,55.48
2023-12-30T11:25:30.980Z,58.66
2023-12-30T11:26:30.965Z,58.38
2023-12-30T11:27:31.034Z,56.79
2023-12-30T11:28:31.126Z,57.98
2023-12-30T11:29:31.181Z,56.01
2023-12-30T11:30:31.254Z,58.61
2023-12-30T11:31:31.312Z,58.52
2023-12-30T11:32:32.359Z,56.08
2023-12-30T11:33:31.504Z,57.83
2023-12-30T11:34:31.502Z,57.33
2023-12-30T11:35:31.538Z,57.00
2023-12-30T11:36:31.601Z,57.07
2023-12-30T11:37:31.666Z,57.47
2023-12-30T11:38:31.760Z,56.07
2023-12-30T11:39:31.944Z,56.11
2023-12-30T11:40:31.909Z,56.29
2023-12-30T11:41:31.907Z,58.32
2023-12-30T11:42:37.964Z,60.33
2023-12-30T11:43:32.985Z,59.71
2023-12-30T11:44:31.960Z,58.48
2023-12-30T11:45:31.960Z,57.66
2023-12-30T11:46:32.024Z,58.74
2023-12-30T11:47:31.987Z,58.34
2023-12-30T11:48:32.069Z,55.58
2023-12-30T11:49:32.052Z,58.74
2023-12-30T11:50:31.935Z,58.15
2023-12-30T11:51:31.986Z,58.86
2023-12-30T11:52:32.096Z,57.02
2023-12-30T11:53:32.123Z,57.78
2023-12-30T11:54:32.256Z,57.07
2023-12-30T11:55:32.432Z,57.92
2023-12-30T11:56:32.328Z,57.98
2023-12-30T11:57:32.387Z,58.98
2023-12-30T11:58:32.467Z,58.92
2023-12-30T11:59:32.515Z,59.53
2023-12-30T12:00:32.564Z,58.45
2023-12-30T12:01:32.684Z,59.48
2023-12-30T12:02:32.691Z,58.92
2023-12-30T12:03:32.794Z,56.64
2023-12-30T12:04:32.915Z,59.33
2023-12-30T12:05:32.965Z,58.59
2023-12-30T12:06:32.968Z,58.60
2023-12-30T12:07:33.072Z,59.84
2023-12-30T12:08:33.093Z,57.88
2023-12-30T12:09:33.166Z,61.43
2023-12-30T12:10:33.267Z,59.91
2023-12-30T12:11:33.295Z,59.00
2023-12-30T12:12:33.347Z,58.12
2023-12-30T12:13:33.452Z,58.83
2023-12-30T12:14:33.470Z,60.49
2023-12-30T12:15:33.549Z,56.78
2023-12-30T12:16:33.927Z,59.40
2023-12-30T12:17:33.781Z,59.55
2023-12-30T12:18:33.769Z,59.18
2023-12-30T12:19:33.776Z,57.82
2023-12-30T12:20:33.828Z,58.47
2023-12-30T12:21:33.904Z,58.88
2023-12-30T12:22:34.064Z,57.73
2023-12-30T12:23:34.041Z,59.62
2023-12-30T12:24:34.087Z,58.28
2023-12-30T12:25:34.167Z,57.07
2023-12-30T12:26:34.202Z,57.77
2023-12-30T12:27:34.370Z,56.23
2023-12-30T12:28:34.378Z,56.88
2023-12-30T12:29:34.412Z,57.05
2023-12-30T12:30:34.487Z,54.74
2023-12-30T12:31:34.628Z,58.14
2023-12-30T12:32:34.617Z,57.81
2023-12-30T12:33:34.793Z,58.05
2023-12-30T12:34:34.807Z,57.84
2023-12-30T12:35:34.793Z,55.04
2023-12-30T12:36:34.852Z,57.42
2023-12-30T12:37:34.964Z,55.32
2023-12-30T12:38:34.985Z,57.89
2023-12-30T12:39:35.065Z,58.82
2023-12-30T12:40:35.175Z,56.43
2023-12-30T12:41:35.174Z,57.16
2023-12-30T12:42:35.261Z,57.10
2023-12-30T12:43:35.334Z,57.86
2023-12-30T12:44:35.384Z,56.34
2023-12-30T12:45:35.444Z,56.78
2023-12-30T12:46:35.526Z,56.12
2023-12-30T12:47:35.627Z,57.50
2023-12-30T12:48:35.721Z,57.35
2023-12-30T12:49:35.688Z,58.11
2023-12-30T12:50:35.750Z,55.70
2023-12-30T12:51:35.794Z,54.08
2023-12-30T12:52:35.902Z,54.69
2023-12-30T12:53:35.927Z,58.21